sensor_id;sensor_type;location;lat;lon;timestamp;temperature;humidity
14577;DHT22;7375;46.072;14.470;2023-04-24T00:00:14;22.80;50.20
14577;DHT22;7375;46.072;14.470;2023-04-24T00:02:43;22.80;50.20
14577;DHT22;7375;46.072;14.470;2023-04-24T00:05:12;22.80;50.30
14577;DHT22;7375;46.072;14.470;2023-04-24T00:07:40;22.80;50.30
14577;DHT22;7375;46.072;14.470;2023-04-24T00:10:17;22.80;50.30
14577;DHT22;7375;46.072;14.470;2023-04-24T00:12:49;22.80;50.30
14577;DHT22;7375;46.072;14.470;2023-04-24T00:15:16;22.80;50.30
14577;DHT22;7375;46.072;14.470;2023-04-24T00:17:43;22.80;50.30
14577;DHT22;7375;46.072;14.470;2023-04-24T00:20:10;22.80;50.40
14577;DHT22;7375;46.072;14.470;2023-04-24T00:22:37;22.80;50.40
14577;DHT22;7375;46.072;14.470;2023-04-24T00:25:04;22.80;50.40
14577;DHT22;7375;46.072;14.470;2023-04-24T00:27:31;22.80;50.40
14577;DHT22;7375;46.072;14.470;2023-04-24T00:30:02;22.80;50.40
14577;DHT22;7375;46.072;14.470;2023-04-24T00:32:28;22.70;50.30
14577;DHT22;7375;46.072;14.470;2023-04-24T00:34:56;22.70;50.30
14577;DHT22;7375;46.072;14.470;2023-04-24T00:37:23;22.70;50.40
14577;DHT22;7375;46.072;14.470;2023-04-24T00:39:49;22.70;50.40
14577;DHT22;7375;46.072;14.470;2023-04-24T00:42:16;22.70;50.40
14577;DHT22;7375;46.072;14.470;2023-04-24T00:44:43;22.70;50.40
14577;DHT22;7375;46.072;14.470;2023-04-24T00:47:12;22.70;50.40
14577;DHT22;7375;46.072;14.470;2023-04-24T00:49:39;22.70;50.50
14577;DHT22;7375;46.072;14.470;2023-04-24T00:52:06;22.70;50.50
14577;DHT22;7375;46.072;14.470;2023-04-24T00:54:34;22.70;50.50
14577;DHT22;7375;46.072;14.470;2023-04-24T00:57:07;22.70;50.50
14577;DHT22;7375;46.072;14.470;2023-04-24T00:59:33;22.70;50.50
14577;DHT22;7375;46.072;14.470;2023-04-24T01:02:01;22.70;50.50
14577;DHT22;7375;46.072;14.470;2023-04-24T01:04:37;22.70;50.50
14577;DHT22;7375;46.072;14.470;2023-04-24T01:07:04;22.70;50.60
14577;DHT22;7375;46.072;14.470;2023-04-24T01:09:35;22.60;50.50
14577;DHT22;7375;46.072;14.470;2023-04-24T01:12:02;22.60;50.50
14577;DHT22;7375;46.072;14.470;2023-04-24T01:14:29;22.60;50.50
14577;DHT22;7375;46.072;14.470;2023-04-24T01:16:56;22.60;50.50
14577;DHT22;7375;46.072;14.470;2023-04-24T01:19:24;22.60;50.50
14577;DHT22;7375;46.072;14.470;2023-04-24T01:21:53;22.60;50.50
14577;DHT22;7375;46.072;14.470;2023-04-24T01:24:21;22.60;50.50
14577;DHT22;7375;46.072;14.470;2023-04-24T01:26:48;22.60;50.60
14577;DHT22;7375;46.072;14.470;2023-04-24T01:29:15;22.60;50.60
14577;DHT22;7375;46.072;14.470;2023-04-24T01:31:42;22.60;50.60
14577;DHT22;7375;46.072;14.470;2023-04-24T01:34:09;22.60;50.60
14577;DHT22;7375;46.072;14.470;2023-04-24T01:36:36;22.60;50.60
14577;DHT22;7375;46.072;14.470;2023-04-24T01:39:04;22.60;50.60
14577;DHT22;7375;46.072;14.470;2023-04-24T01:41:32;22.60;50.60
14577;DHT22;7375;46.072;14.470;2023-04-24T01:43:59;22.60;50.60
14577;DHT22;7375;46.072;14.470;2023-04-24T01:46:26;22.60;50.70
14577;DHT22;7375;46.072;14.470;2023-04-24T01:48:53;22.60;50.60
14577;DHT22;7375;46.072;14.470;2023-04-24T01:51:20;22.60;50.60
14577;DHT22;7375;46.072;14.470;2023-04-24T01:53:46;22.60;50.70
14577;DHT22;7375;46.072;14.470;2023-04-24T01:56:13;22.60;50.70
14577;DHT22;7375;46.072;14.470;2023-04-24T01:58:42;22.60;50.70
14577;DHT22;7375;46.072;14.470;2023-04-24T02:01:09;22.60;50.70
14577;DHT22;7375;46.072;14.470;2023-04-24T02:03:41;22.60;50.70
14577;DHT22;7375;46.072;14.470;2023-04-24T02:06:08;22.60;50.70
14577;DHT22;7375;46.072;14.470;2023-04-24T02:08:34;22.60;50.70
14577;DHT22;7375;46.072;14.470;2023-04-24T02:11:01;22.50;50.60
14577;DHT22;7375;46.072;14.470;2023-04-24T02:13:28;22.50;50.60
14577;DHT22;7375;46.072;14.470;2023-04-24T02:15:56;22.50;50.60
14577;DHT22;7375;46.072;14.470;2023-04-24T02:18:24;22.60;50.70
14577;DHT22;7375;46.072;14.470;2023-04-24T02:20:51;22.50;50.60
14577;DHT22;7375;46.072;14.470;2023-04-24T02:23:18;22.50;50.60
14577;DHT22;7375;46.072;14.470;2023-04-24T02:25:45;22.50;50.60
14577;DHT22;7375;46.072;14.470;2023-04-24T02:28:12;22.50;50.70
14577;DHT22;7375;46.072;14.470;2023-04-24T02:30:39;22.50;50.60
14577;DHT22;7375;46.072;14.470;2023-04-24T02:33:07;22.50;50.70
14577;DHT22;7375;46.072;14.470;2023-04-24T02:35:34;22.50;50.70
14577;DHT22;7375;46.072;14.470;2023-04-24T02:38:01;22.50;50.70
14577;DHT22;7375;46.072;14.470;2023-04-24T02:40:28;22.50;50.70
14577;DHT22;7375;46.072;14.470;2023-04-24T02:42:55;22.50;50.70
14577;DHT22;7375;46.072;14.470;2023-04-24T02:45:22;22.50;50.70
14577;DHT22;7375;46.072;14.470;2023-04-24T02:47:49;22.50;50.70
14577;DHT22;7375;46.072;14.470;2023-04-24T02:50:17;22.50;50.70
14577;DHT22;7375;46.072;14.470;2023-04-24T02:52:44;22.50;50.80
14577;DHT22;7375;46.072;14.470;2023-04-24T02:55:11;22.50;50.70
14577;DHT22;7375;46.072;14.470;2023-04-24T02:57:37;22.50;50.80
14577;DHT22;7375;46.072;14.470;2023-04-24T03:00:05;22.50;50.80
14577;DHT22;7375;46.072;14.470;2023-04-24T03:02:32;22.50;50.80
14577;DHT22;7375;46.072;14.470;2023-04-24T03:04:59;22.50;50.80
14577;DHT22;7375;46.072;14.470;2023-04-24T03:07:27;22.50;50.80
14577;DHT22;7375;46.072;14.470;2023-04-24T03:09:54;22.50;50.80
14577;DHT22;7375;46.072;14.470;2023-04-24T03:12:23;22.50;50.80
14577;DHT22;7375;46.072;14.470;2023-04-24T03:14:50;22.50;50.90
14577;DHT22;7375;46.072;14.470;2023-04-24T03:17:16;22.50;50.90
14577;DHT22;7375;46.072;14.470;2023-04-24T03:19:43;22.50;50.80
14577;DHT22;7375;46.072;14.470;2023-04-24T03:22:10;22.50;50.90
14577;DHT22;7375;46.072;14.470;2023-04-24T03:24:39;22.50;50.90
14577;DHT22;7375;46.072;14.470;2023-04-24T03:27:05;22.50;50.90
14577;DHT22;7375;46.072;14.470;2023-04-24T03:29:32;22.50;50.90
14577;DHT22;7375;46.072;14.470;2023-04-24T03:31:59;22.50;50.90
14577;DHT22;7375;46.072;14.470;2023-04-24T03:34:26;22.50;50.90
14577;DHT22;7375;46.072;14.470;2023-04-24T03:36:53;22.40;50.80
14577;DHT22;7375;46.072;14.470;2023-04-24T03:39:20;22.50;50.90
14577;DHT22;7375;46.072;14.470;2023-04-24T03:41:48;22.40;50.80
14577;DHT22;7375;46.072;14.470;2023-04-24T03:44:15;22.50;50.90
14577;DHT22;7375;46.072;14.470;2023-04-24T03:46:42;22.40;50.80
14577;DHT22;7375;46.072;14.470;2023-04-24T03:49:09;22.40;50.80
14577;DHT22;7375;46.072;14.470;2023-04-24T03:51:36;22.40;50.90
14577;DHT22;7375;46.072;14.470;2023-04-24T03:54:02;22.40;50.90
14577;DHT22;7375;46.072;14.470;2023-04-24T03:56:29;22.40;50.90
14577;DHT22;7375;46.072;14.470;2023-04-24T03:58:57;22.50;51.00
14577;DHT22;7375;46.072;14.470;2023-04-24T04:01:24;22.50;51.00
14577;DHT22;7375;46.072;14.470;2023-04-24T04:03:53;22.40;50.90
14577;DHT22;7375;46.072;14.470;2023-04-24T04:06:20;22.40;50.90
14577;DHT22;7375;46.072;14.470;2023-04-24T04:08:47;22.40;50.90
14577;DHT22;7375;46.072;14.470;2023-04-24T04:11:14;22.40;50.90
14577;DHT22;7375;46.072;14.470;2023-04-24T04:13:41;22.40;50.90
14577;DHT22;7375;46.072;14.470;2023-04-24T04:16:09;22.50;51.00
14577;DHT22;7375;46.072;14.470;2023-04-24T04:18:36;22.40;50.90
14577;DHT22;7375;46.072;14.470;2023-04-24T04:21:03;22.50;51.00
14577;DHT22;7375;46.072;14.470;2023-04-24T04:23:30;22.50;51.00
14577;DHT22;7375;46.072;14.470;2023-04-24T04:25:57;22.50;51.00
14577;DHT22;7375;46.072;14.470;2023-04-24T04:28:25;22.50;51.00
14577;DHT22;7375;46.072;14.470;2023-04-24T04:30:52;22.50;50.90
14577;DHT22;7375;46.072;14.470;2023-04-24T04:33:20;22.50;50.90
14577;DHT22;7375;46.072;14.470;2023-04-24T04:35:47;22.50;50.90
14577;DHT22;7375;46.072;14.470;2023-04-24T04:38:15;22.50;50.90
14577;DHT22;7375;46.072;14.470;2023-04-24T04:40:42;22.50;50.80
14577;DHT22;7375;46.072;14.470;2023-04-24T04:43:09;22.50;50.80
14577;DHT22;7375;46.072;14.470;2023-04-24T04:45:36;22.60;50.90
14577;DHT22;7375;46.072;14.470;2023-04-24T04:48:05;22.50;50.80
14577;DHT22;7375;46.072;14.470;2023-04-24T04:50:34;22.60;50.90
14577;DHT22;7375;46.072;14.470;2023-04-24T04:53:01;22.60;50.80
14577;DHT22;7375;46.072;14.470;2023-04-24T04:55:27;22.60;50.80
14577;DHT22;7375;46.072;14.470;2023-04-24T04:57:54;22.60;50.70
14577;DHT22;7375;46.072;14.470;2023-04-24T05:00:22;22.60;50.70
14577;DHT22;7375;46.072;14.470;2023-04-24T05:02:50;22.60;50.70
14577;DHT22;7375;46.072;14.470;2023-04-24T05:05:17;22.60;50.70
14577;DHT22;7375;46.072;14.470;2023-04-24T05:07:46;22.60;50.70
14577;DHT22;7375;46.072;14.470;2023-04-24T05:10:13;22.60;50.60
14577;DHT22;7375;46.072;14.470;2023-04-24T05:12:39;22.70;50.70
14577;DHT22;7375;46.072;14.470;2023-04-24T05:15:06;22.70;50.60
14577;DHT22;7375;46.072;14.470;2023-04-24T05:17:33;22.70;50.60
14577;DHT22;7375;46.072;14.470;2023-04-24T05:20:00;22.70;50.60
14577;DHT22;7375;46.072;14.470;2023-04-24T05:22:28;22.70;50.60
14577;DHT22;7375;46.072;14.470;2023-04-24T05:24:56;22.70;50.60
14577;DHT22;7375;46.072;14.470;2023-04-24T05:27:23;22.70;50.60
14577;DHT22;7375;46.072;14.470;2023-04-24T05:29:49;22.70;50.50
14577;DHT22;7375;46.072;14.470;2023-04-24T05:32:16;22.70;50.50
14577;DHT22;7375;46.072;14.470;2023-04-24T05:34:43;22.70;50.50
14577;DHT22;7375;46.072;14.470;2023-04-24T05:37:10;22.80;50.60
14577;DHT22;7375;46.072;14.470;2023-04-24T05:39:37;22.80;50.50
14577;DHT22;7375;46.072;14.470;2023-04-24T05:42:05;22.80;50.50
14577;DHT22;7375;46.072;14.470;2023-04-24T05:44:32;22.80;50.50
14577;DHT22;7375;46.072;14.470;2023-04-24T05:46:58;22.80;50.50
14577;DHT22;7375;46.072;14.470;2023-04-24T05:49:26;22.80;50.50
14577;DHT22;7375;46.072;14.470;2023-04-24T05:51:53;22.80;50.50
14577;DHT22;7375;46.072;14.470;2023-04-24T05:54:19;22.80;50.40
14577;DHT22;7375;46.072;14.470;2023-04-24T05:56:46;22.80;50.40
14577;DHT22;7375;46.072;14.470;2023-04-24T05:59:14;22.80;50.40
14577;DHT22;7375;46.072;14.470;2023-04-24T06:01:41;22.80;50.40
14577;DHT22;7375;46.072;14.470;2023-04-24T06:04:08;22.80;50.40
14577;DHT22;7375;46.072;14.470;2023-04-24T06:06:35;22.90;50.40
14577;DHT22;7375;46.072;14.470;2023-04-24T06:09:02;22.90;50.40
14577;DHT22;7375;46.072;14.470;2023-04-24T06:11:30;22.90;50.40
14577;DHT22;7375;46.072;14.470;2023-04-24T06:13:57;22.90;50.40
14577;DHT22;7375;46.072;14.470;2023-04-24T06:16:25;22.90;50.40
14577;DHT22;7375;46.072;14.470;2023-04-24T06:18:52;22.90;50.30
14577;DHT22;7375;46.072;14.470;2023-04-24T06:21:18;22.90;50.20
14577;DHT22;7375;46.072;14.470;2023-04-24T06:23:45;23.00;50.30
14577;DHT22;7375;46.072;14.470;2023-04-24T06:26:12;23.00;50.30
14577;DHT22;7375;46.072;14.470;2023-04-24T06:28:40;23.00;50.20
14577;DHT22;7375;46.072;14.470;2023-04-24T06:31:06;23.00;50.20
14577;DHT22;7375;46.072;14.470;2023-04-24T06:33:35;23.00;50.10
14577;DHT22;7375;46.072;14.470;2023-04-24T06:36:01;23.00;50.10
14577;DHT22;7375;46.072;14.470;2023-04-24T06:38:29;23.10;50.20
14577;DHT22;7375;46.072;14.470;2023-04-24T06:40:56;23.10;50.20
14577;DHT22;7375;46.072;14.470;2023-04-24T06:43:23;23.10;50.10
14577;DHT22;7375;46.072;14.470;2023-04-24T06:45:49;23.10;50.10
14577;DHT22;7375;46.072;14.470;2023-04-24T06:48:16;23.10;50.00
14577;DHT22;7375;46.072;14.470;2023-04-24T06:50:44;23.10;50.00
14577;DHT22;7375;46.072;14.470;2023-04-24T06:53:12;23.10;50.00
14577;DHT22;7375;46.072;14.470;2023-04-24T06:55:39;23.10;50.00
14577;DHT22;7375;46.072;14.470;2023-04-24T06:58:07;23.10;50.00
14577;DHT22;7375;46.072;14.470;2023-04-24T07:00:34;23.10;50.00
14577;DHT22;7375;46.072;14.470;2023-04-24T07:03:00;23.10;50.00
14577;DHT22;7375;46.072;14.470;2023-04-24T07:05:27;23.10;49.90
14577;DHT22;7375;46.072;14.470;2023-04-24T07:07:56;23.20;50.00
14577;DHT22;7375;46.072;14.470;2023-04-24T07:10:24;23.20;50.00
14577;DHT22;7375;46.072;14.470;2023-04-24T07:12:52;23.20;50.00
14577;DHT22;7375;46.072;14.470;2023-04-24T07:15:19;23.20;50.00
14577;DHT22;7375;46.072;14.470;2023-04-24T07:17:46;23.20;49.90
14577;DHT22;7375;46.072;14.470;2023-04-24T07:20:13;23.20;49.90
14577;DHT22;7375;46.072;14.470;2023-04-24T07:22:40;23.20;49.90
14577;DHT22;7375;46.072;14.470;2023-04-24T07:25:08;23.20;49.90
14577;DHT22;7375;46.072;14.470;2023-04-24T07:27:35;23.20;49.90
14577;DHT22;7375;46.072;14.470;2023-04-24T07:30:02;23.20;49.90
14577;DHT22;7375;46.072;14.470;2023-04-24T07:32:29;23.20;49.90
14577;DHT22;7375;46.072;14.470;2023-04-24T07:34:56;23.20;49.80
14577;DHT22;7375;46.072;14.470;2023-04-24T07:37:23;23.20;49.80
14577;DHT22;7375;46.072;14.470;2023-04-24T07:39:50;23.20;49.80
14577;DHT22;7375;46.072;14.470;2023-04-24T07:42:19;23.20;49.80
14577;DHT22;7375;46.072;14.470;2023-04-24T07:44:45;23.20;49.80
14577;DHT22;7375;46.072;14.470;2023-04-24T07:47:13;23.20;49.80
14577;DHT22;7375;46.072;14.470;2023-04-24T07:49:41;23.30;49.90
14577;DHT22;7375;46.072;14.470;2023-04-24T07:52:08;23.20;49.80
14577;DHT22;7375;46.072;14.470;2023-04-24T07:54:35;23.20;49.80
14577;DHT22;7375;46.072;14.470;2023-04-24T07:57:02;23.20;49.80
14577;DHT22;7375;46.072;14.470;2023-04-24T07:59:31;23.30;49.90
14577;DHT22;7375;46.072;14.470;2023-04-24T08:01:57;23.30;49.90
14577;DHT22;7375;46.072;14.470;2023-04-24T08:04:26;23.30;49.90
14577;DHT22;7375;46.072;14.470;2023-04-24T08:06:53;23.30;49.90
14577;DHT22;7375;46.072;14.470;2023-04-24T08:09:20;23.30;49.90
14577;DHT22;7375;46.072;14.470;2023-04-24T08:11:47;23.30;49.90
14577;DHT22;7375;46.072;14.470;2023-04-24T08:14:14;23.30;49.90
14577;DHT22;7375;46.072;14.470;2023-04-24T08:16:42;23.30;49.90
14577;DHT22;7375;46.072;14.470;2023-04-24T08:19:09;23.30;49.90
14577;DHT22;7375;46.072;14.470;2023-04-24T08:21:35;23.30;49.90
14577;DHT22;7375;46.072;14.470;2023-04-24T08:24:02;23.30;49.90
14577;DHT22;7375;46.072;14.470;2023-04-24T08:26:33;23.30;49.90
14577;DHT22;7375;46.072;14.470;2023-04-24T08:28:59;23.30;49.80
14577;DHT22;7375;46.072;14.470;2023-04-24T08:31:26;23.30;49.90
14577;DHT22;7375;46.072;14.470;2023-04-24T08:33:54;23.30;49.90
14577;DHT22;7375;46.072;14.470;2023-04-24T08:36:21;23.30;49.80
14577;DHT22;7375;46.072;14.470;2023-04-24T08:38:48;23.30;49.80
14577;DHT22;7375;46.072;14.470;2023-04-24T08:41:15;23.30;49.80
14577;DHT22;7375;46.072;14.470;2023-04-24T08:43:45;23.30;49.80
14577;DHT22;7375;46.072;14.470;2023-04-24T08:46:13;23.30;49.90
14577;DHT22;7375;46.072;14.470;2023-04-24T08:48:39;23.30;49.80
14577;DHT22;7375;46.072;14.470;2023-04-24T08:51:08;23.30;49.80
14577;DHT22;7375;46.072;14.470;2023-04-24T08:53:35;23.30;49.80
14577;DHT22;7375;46.072;14.470;2023-04-24T08:56:02;23.30;49.80
14577;DHT22;7375;46.072;14.470;2023-04-24T08:58:29;23.30;49.90
14577;DHT22;7375;46.072;14.470;2023-04-24T09:00:57;23.30;49.80
14577;DHT22;7375;46.072;14.470;2023-04-24T09:03:24;23.30;49.80
14577;DHT22;7375;46.072;14.470;2023-04-24T09:05:52;23.30;49.80
14577;DHT22;7375;46.072;14.470;2023-04-24T09:08:21;23.30;49.90
14577;DHT22;7375;46.072;14.470;2023-04-24T09:10:50;23.30;49.80
14577;DHT22;7375;46.072;14.470;2023-04-24T09:13:17;23.30;49.80
14577;DHT22;7375;46.072;14.470;2023-04-24T09:15:44;23.30;49.90
14577;DHT22;7375;46.072;14.470;2023-04-24T09:18:11;23.30;49.80
14577;DHT22;7375;46.072;14.470;2023-04-24T09:23:21;23.30;49.90
14577;DHT22;7375;46.072;14.470;2023-04-24T09:25:48;23.30;49.90
14577;DHT22;7375;46.072;14.470;2023-04-24T09:28:22;23.30;49.90
14577;DHT22;7375;46.072;14.470;2023-04-24T09:31:01;23.30;49.90
14577;DHT22;7375;46.072;14.470;2023-04-24T09:33:28;23.30;49.80
14577;DHT22;7375;46.072;14.470;2023-04-24T09:35:55;23.30;49.80
14577;DHT22;7375;46.072;14.470;2023-04-24T09:38:31;23.30;49.80
14577;DHT22;7375;46.072;14.470;2023-04-24T09:40:59;23.30;49.80
14577;DHT22;7375;46.072;14.470;2023-04-24T09:43:26;23.30;49.80
14577;DHT22;7375;46.072;14.470;2023-04-24T09:45:55;23.30;49.80
14577;DHT22;7375;46.072;14.470;2023-04-24T09:48:29;23.30;49.80
14577;DHT22;7375;46.072;14.470;2023-04-24T09:50:56;23.30;49.80
14577;DHT22;7375;46.072;14.470;2023-04-24T09:53:23;23.30;49.80
14577;DHT22;7375;46.072;14.470;2023-04-24T09:55:52;23.30;49.80
14577;DHT22;7375;46.072;14.470;2023-04-24T09:58:19;23.30;49.80
14577;DHT22;7375;46.072;14.470;2023-04-24T10:00:53;23.30;49.80
14577;DHT22;7375;46.072;14.470;2023-04-24T10:03:20;23.30;49.80
14577;DHT22;7375;46.072;14.470;2023-04-24T10:05:46;23.30;49.80
14577;DHT22;7375;46.072;14.470;2023-04-24T10:08:15;23.30;49.80
14577;DHT22;7375;46.072;14.470;2023-04-24T10:10:42;23.30;49.80
14577;DHT22;7375;46.072;14.470;2023-04-24T10:13:11;23.30;49.80
14577;DHT22;7375;46.072;14.470;2023-04-24T10:15:38;23.30;49.80
14577;DHT22;7375;46.072;14.470;2023-04-24T10:18:06;23.30;49.80
14577;DHT22;7375;46.072;14.470;2023-04-24T10:20:34;23.30;49.80
14577;DHT22;7375;46.072;14.470;2023-04-24T10:23:01;23.30;49.80
14577;DHT22;7375;46.072;14.470;2023-04-24T10:25:28;23.30;49.80
14577;DHT22;7375;46.072;14.470;2023-04-24T10:27:55;23.30;49.80
14577;DHT22;7375;46.072;14.470;2023-04-24T10:30:26;23.30;49.80
14577;DHT22;7375;46.072;14.470;2023-04-24T10:32:53;23.30;49.90
14577;DHT22;7375;46.072;14.470;2023-04-24T10:35:21;23.30;49.80
14577;DHT22;7375;46.072;14.470;2023-04-24T10:37:54;23.30;50.10
14577;DHT22;7375;46.072;14.470;2023-04-24T10:40:25;23.30;49.90
14577;DHT22;7375;46.072;14.470;2023-04-24T10:42:52;23.30;49.90
14577;DHT22;7375;46.072;14.470;2023-04-24T10:45:19;23.30;49.90
14577;DHT22;7375;46.072;14.470;2023-04-24T10:47:55;23.30;49.90
14577;DHT22;7375;46.072;14.470;2023-04-24T10:50:22;23.30;49.90
14577;DHT22;7375;46.072;14.470;2023-04-24T10:52:50;23.30;50.00
14577;DHT22;7375;46.072;14.470;2023-04-24T10:58:03;23.30;50.00
14577;DHT22;7375;46.072;14.470;2023-04-24T11:00:29;23.30;50.00
14577;DHT22;7375;46.072;14.470;2023-04-24T11:02:58;23.30;50.00
14577;DHT22;7375;46.072;14.470;2023-04-24T11:08:13;23.30;50.00
14577;DHT22;7375;46.072;14.470;2023-04-24T11:10:44;23.30;50.00
14577;DHT22;7375;46.072;14.470;2023-04-24T11:13:11;23.30;50.00
14577;DHT22;7375;46.072;14.470;2023-04-24T11:15:41;23.30;50.00
14577;DHT22;7375;46.072;14.470;2023-04-24T11:18:13;23.30;50.00
14577;DHT22;7375;46.072;14.470;2023-04-24T11:20:43;23.30;50.00
14577;DHT22;7375;46.072;14.470;2023-04-24T11:23:11;23.30;50.00
14577;DHT22;7375;46.072;14.470;2023-04-24T11:25:38;23.30;50.00
14577;DHT22;7375;46.072;14.470;2023-04-24T11:28:05;23.30;50.00
14577;DHT22;7375;46.072;14.470;2023-04-24T11:30:32;23.30;50.00
14577;DHT22;7375;46.072;14.470;2023-04-24T11:33:04;23.30;50.00
14577;DHT22;7375;46.072;14.470;2023-04-24T11:35:35;23.30;50.00
14577;DHT22;7375;46.072;14.470;2023-04-24T11:38:05;23.30;50.00
14577;DHT22;7375;46.072;14.470;2023-04-24T11:40:33;23.30;50.00
14577;DHT22;7375;46.072;14.470;2023-04-24T11:42:59;23.30;50.00
14577;DHT22;7375;46.072;14.470;2023-04-24T11:45:27;23.30;50.00
14577;DHT22;7375;46.072;14.470;2023-04-24T11:47:54;23.30;50.00
14577;DHT22;7375;46.072;14.470;2023-04-24T11:50:21;23.30;50.00
14577;DHT22;7375;46.072;14.470;2023-04-24T11:52:50;23.30;50.00
14577;DHT22;7375;46.072;14.470;2023-04-24T11:55:24;23.30;50.00
14577;DHT22;7375;46.072;14.470;2023-04-24T11:57:53;23.30;50.00
14577;DHT22;7375;46.072;14.470;2023-04-24T12:00:22;23.30;50.00
14577;DHT22;7375;46.072;14.470;2023-04-24T12:02:49;23.30;50.00
14577;DHT22;7375;46.072;14.470;2023-04-24T12:05:19;23.30;50.00
14577;DHT22;7375;46.072;14.470;2023-04-24T12:07:46;23.30;50.10
14577;DHT22;7375;46.072;14.470;2023-04-24T12:10:14;23.30;50.10
14577;DHT22;7375;46.072;14.470;2023-04-24T12:12:41;23.30;50.00
14577;DHT22;7375;46.072;14.470;2023-04-24T12:15:08;23.30;50.10
14577;DHT22;7375;46.072;14.470;2023-04-24T12:17:35;23.30;50.10
14577;DHT22;7375;46.072;14.470;2023-04-24T12:20:03;23.30;50.00
14577;DHT22;7375;46.072;14.470;2023-04-24T12:22:42;23.30;50.10
14577;DHT22;7375;46.072;14.470;2023-04-24T12:25:10;23.30;50.00
14577;DHT22;7375;46.072;14.470;2023-04-24T12:27:38;23.30;50.00
14577;DHT22;7375;46.072;14.470;2023-04-24T12:30:05;23.30;50.10
14577;DHT22;7375;46.072;14.470;2023-04-24T12:32:40;23.30;50.60
14577;DHT22;7375;46.072;14.470;2023-04-24T12:35:07;23.30;50.00
14577;DHT22;7375;46.072;14.470;2023-04-24T12:37:34;23.30;50.00
14577;DHT22;7375;46.072;14.470;2023-04-24T12:40:02;23.40;50.10
14577;DHT22;7375;46.072;14.470;2023-04-24T12:42:30;23.30;50.60
14577;DHT22;7375;46.072;14.470;2023-04-24T12:44:58;23.40;50.10
14577;DHT22;7375;46.072;14.470;2023-04-24T12:47:26;23.30;50.00
14577;DHT22;7375;46.072;14.470;2023-04-24T12:49:53;23.40;50.20
14577;DHT22;7375;46.072;14.470;2023-04-24T12:52:20;23.40;50.10
14577;DHT22;7375;46.072;14.470;2023-04-24T12:54:47;23.40;50.10
14577;DHT22;7375;46.072;14.470;2023-04-24T12:57:14;23.40;50.10
14577;DHT22;7375;46.072;14.470;2023-04-24T12:59:41;23.40;50.10
14577;DHT22;7375;46.072;14.470;2023-04-24T13:02:10;23.40;50.10
14577;DHT22;7375;46.072;14.470;2023-04-24T13:04:37;23.40;50.10
14577;DHT22;7375;46.072;14.470;2023-04-24T13:07:04;23.40;50.10
14577;DHT22;7375;46.072;14.470;2023-04-24T13:09:34;23.40;50.10
14577;DHT22;7375;46.072;14.470;2023-04-24T13:12:01;23.40;50.10
14577;DHT22;7375;46.072;14.470;2023-04-24T13:14:27;23.40;50.10
14577;DHT22;7375;46.072;14.470;2023-04-24T13:16:54;23.30;50.00
14577;DHT22;7375;46.072;14.470;2023-04-24T13:19:23;23.40;50.10
14577;DHT22;7375;46.072;14.470;2023-04-24T13:21:50;23.40;50.10
14577;DHT22;7375;46.072;14.470;2023-04-24T13:24:17;23.40;50.10
14577;DHT22;7375;46.072;14.470;2023-04-24T13:26:44;23.40;50.10
14577;DHT22;7375;46.072;14.470;2023-04-24T13:29:10;23.40;50.10
14577;DHT22;7375;46.072;14.470;2023-04-24T13:31:37;23.40;50.10
14577;DHT22;7375;46.072;14.470;2023-04-24T13:34:04;23.40;50.00
14577;DHT22;7375;46.072;14.470;2023-04-24T13:36:32;23.40;50.10
14577;DHT22;7375;46.072;14.470;2023-04-24T13:39:05;23.40;50.10
14577;DHT22;7375;46.072;14.470;2023-04-24T13:41:32;23.40;50.10
14577;DHT22;7375;46.072;14.470;2023-04-24T13:43:59;23.40;50.00
14577;DHT22;7375;46.072;14.470;2023-04-24T13:46:26;23.40;50.00
14577;DHT22;7375;46.072;14.470;2023-04-24T13:48:53;23.40;50.00
14577;DHT22;7375;46.072;14.470;2023-04-24T13:51:20;23.40;50.00
14577;DHT22;7375;46.072;14.470;2023-04-24T13:53:48;23.40;50.10
14577;DHT22;7375;46.072;14.470;2023-04-24T13:56:14;23.40;50.00
14577;DHT22;7375;46.072;14.470;2023-04-24T13:58:41;23.40;50.00
14577;DHT22;7375;46.072;14.470;2023-04-24T14:01:08;23.40;50.10
14577;DHT22;7375;46.072;14.470;2023-04-24T14:03:36;23.40;50.10
14577;DHT22;7375;46.072;14.470;2023-04-24T14:06:03;23.40;50.10
14577;DHT22;7375;46.072;14.470;2023-04-24T14:08:31;23.40;50.00
14577;DHT22;7375;46.072;14.470;2023-04-24T14:10:59;23.40;50.10
14577;DHT22;7375;46.072;14.470;2023-04-24T14:13:26;23.40;50.00
14577;DHT22;7375;46.072;14.470;2023-04-24T14:15:53;23.40;50.10
14577;DHT22;7375;46.072;14.470;2023-04-24T14:18:20;23.40;50.10
14577;DHT22;7375;46.072;14.470;2023-04-24T14:20:47;23.40;50.10
14577;DHT22;7375;46.072;14.470;2023-04-24T14:23:14;23.40;50.10
14577;DHT22;7375;46.072;14.470;2023-04-24T14:25:41;23.40;50.10
14577;DHT22;7375;46.072;14.470;2023-04-24T14:28:09;23.40;50.10
14577;DHT22;7375;46.072;14.470;2023-04-24T14:30:36;23.40;50.00
14577;DHT22;7375;46.072;14.470;2023-04-24T14:33:05;23.40;50.10
14577;DHT22;7375;46.072;14.470;2023-04-24T14:35:32;23.40;50.10
14577;DHT22;7375;46.072;14.470;2023-04-24T14:38:00;23.40;50.10
14577;DHT22;7375;46.072;14.470;2023-04-24T14:40:27;23.40;50.10
14577;DHT22;7375;46.072;14.470;2023-04-24T14:42:54;23.40;50.10
14577;DHT22;7375;46.072;14.470;2023-04-24T14:45:23;23.40;50.10
14577;DHT22;7375;46.072;14.470;2023-04-24T14:47:50;23.40;50.10
14577;DHT22;7375;46.072;14.470;2023-04-24T14:50:17;23.40;50.10
14577;DHT22;7375;46.072;14.470;2023-04-24T14:52:44;23.40;50.10
14577;DHT22;7375;46.072;14.470;2023-04-24T14:55:11;23.40;50.10
14577;DHT22;7375;46.072;14.470;2023-04-24T14:57:38;23.40;50.10
14577;DHT22;7375;46.072;14.470;2023-04-24T15:00:06;23.40;50.10
14577;DHT22;7375;46.072;14.470;2023-04-24T15:02:35;23.40;50.10
14577;DHT22;7375;46.072;14.470;2023-04-24T15:05:05;23.40;50.10
14577;DHT22;7375;46.072;14.470;2023-04-24T15:07:32;23.40;50.10
14577;DHT22;7375;46.072;14.470;2023-04-24T15:10:00;23.40;50.10
14577;DHT22;7375;46.072;14.470;2023-04-24T15:12:27;23.40;50.10
14577;DHT22;7375;46.072;14.470;2023-04-24T15:14:55;23.40;50.10
14577;DHT22;7375;46.072;14.470;2023-04-24T15:17:21;23.40;50.10
14577;DHT22;7375;46.072;14.470;2023-04-24T15:19:50;23.40;50.10
14577;DHT22;7375;46.072;14.470;2023-04-24T15:22:16;23.40;50.10
14577;DHT22;7375;46.072;14.470;2023-04-24T15:24:43;23.40;50.10
14577;DHT22;7375;46.072;14.470;2023-04-24T15:27:10;23.40;50.10
14577;DHT22;7375;46.072;14.470;2023-04-24T15:29:37;23.40;50.10
14577;DHT22;7375;46.072;14.470;2023-04-24T15:32:04;23.40;50.10
14577;DHT22;7375;46.072;14.470;2023-04-24T15:34:31;23.40;50.10
14577;DHT22;7375;46.072;14.470;2023-04-24T15:36:59;23.40;50.10
14577;DHT22;7375;46.072;14.470;2023-04-24T15:39:26;23.40;50.10